Time;durP1;ratioP1;P1;durP2;ratioP2;P2;SDS_P1;SDS_P2;PMS_P1;PMS_P2;Temp;Humidity;BMP_temperature;BMP_pressure;BME280_temperature;BME280_humidity;BME280_pressure;Samples;Min_cycle;Max_cycle;Signal;HPM_P1;HPM_P2
2022/12/03 00:02:12;;;;;;;20.50;8.70;;;;;;;0.03;98.89;93724.22;5001823;28;20076;-67
2022/12/03 00:04:39;;;;;;;22.92;9.13;;;;;;;0.09;98.34;93728.19;5009386;28;20064;-67
2022/12/03 00:07:05;;;;;;;23.60;9.85;;;;;;;0.09;97.73;93728.97;5009273;28;20557;-66
2022/12/03 00:09:32;;;;;;;20.63;9.00;;;;;;;0.19;98.16;93717.59;5005508;28;20057;-67
2022/12/03 00:11:59;;;;;;;21.52;9.13;;;;;;;0.05;98.96;93732.72;5003573;28;20038;-67
2022/12/03 00:14:26;;;;;;;21.95;9.10;;;;;;;-0.06;98.53;93729.78;5013025;28;20060;-67
2022/12/03 00:16:52;;;;;;;24.80;10.45;;;;;;;-0.21;99.87;93739.50;5011445;28;20034;-66
2022/12/03 00:19:19;;;;;;;24.48;9.65;;;;;;;-0.50;100.00;93733.44;5012981;28;20038;-66
2022/12/03 00:21:46;;;;;;;22.55;8.88;;;;;;;-0.12;100.00;93733.88;5012221;28;20394;-67
2022/12/03 00:24:12;;;;;;;19.35;7.10;;;;;;;-0.07;99.59;93742.50;5011881;28;20446;-65
2022/12/03 00:26:39;;;;;;;22.00;8.63;;;;;;;-0.13;99.87;93730.41;4991991;28;20042;-66
2022/12/03 00:29:06;;;;;;;23.90;10.27;;;;;;;-0.02;98.58;93734.13;5012010;28;20045;-66
2022/12/03 00:31:32;;;;;;;24.95;9.38;;;;;;;-0.31;100.00;93731.94;5012812;28;20386;-66
2022/12/03 00:33:59;;;;;;;24.98;9.18;;;;;;;-0.11;100.00;93730.06;5012251;28;20174;-66
2022/12/03 00:36:26;;;;;;;22.92;9.95;;;;;;;0.08;99.58;93732.00;5012881;28;20398;-66
2022/12/03 00:38:53;;;;;;;23.13;9.57;;;;;;;0.20;99.38;93723.78;4993250;28;20046;-66
2022/12/03 00:41:19;;;;;;;22.10;9.07;;;;;;;0.16;98.28;93728.31;5006553;28;20111;-66
2022/12/03 00:43:46;;;;;;;21.50;8.65;;;;;;;0.08;98.46;93732.00;5011956;28;20054;-66
2022/12/03 00:46:13;;;;;;;21.40;8.55;;;;;;;0.20;98.19;93737.28;5012292;28;20096;-66
2022/12/03 00:48:46;;;;;;;22.40;9.18;;;;;;;0.28;99.03;93728.22;5011974;28;20461;-66
2022/12/03 00:51:13;;;;;;;21.83;9.25;;;;;;;0.22;98.20;93728.81;5012431;28;20044;-66
2022/12/03 00:53:39;;;;;;;25.47;9.67;;;;;;;0.12;98.93;93730.16;5012099;28;20096;-67
2022/12/03 00:56:07;;;;;;;28.33;10.40;;;;;;;0.01;100.00;93729.19;5002769;28;20046;-66
2022/12/03 00:58:34;;;;;;;26.33;10.85;;;;;;;0.03;99.92;93732.31;5008100;28;20045;-66
2022/12/03 01:01:00;;;;;;;24.50;9.75;;;;;;;0.03;99.92;93735.00;5011614;28;20494;-67
2022/12/03 01:03:27;;;;;;;28.42;11.38;;;;;;;-0.50;100.00;93736.16;5012106;28;20050;-67
2022/12/03 01:05:54;;;;;;;27.35;10.95;;;;;;;-0.51;100.00;93731.09;5011342;28;20038;-67
2022/12/03 01:08:20;;;;;;;27.38;10.68;;;;;;;-0.68;100.00;93740.34;5010996;28;20046;-67
2022/12/03 01:10:47;;;;;;;21.45;8.75;;;;;;;-0.46;100.00;93733.53;4997613;28;20057;-68
2022/12/03 01:13:14;;;;;;;22.92;9.82;;;;;;;-0.36;100.00;93740.28;5011959;28;20560;-67
2022/12/03 01:15:41;;;;;;;21.65;8.48;;;;;;;-0.34;100.00;93729.94;5011753;28;20060;-68
2022/12/03 01:18:08;;;;;;;23.30;9.43;;;;;;;-0.17;100.00;93731.47;5011539;28;20398;-69
2022/12/03 01:20:35;;;;;;;24.27;9.55;;;;;;;-0.08;100.00;93738.25;5011817;28;20133;-68
2022/12/03 01:23:02;;;;;;;25.65;9.63;;;;;;;-0.23;100.00;93730.97;5011407;28;20107;-66
2022/12/03 01:25:28;;;;;;;24.10;9.38;;;;;;;-0.37;100.00;93736.81;5005138;28;20045;-68
2022/12/03 01:27:55;;;;;;;24.80;9.50;;;;;;;-0.26;100.00;93740.56;5011469;28;20050;-67
2022/12/03 01:30:22;;;;;;;23.33;9.35;;;;;;;-0.13;100.00;93738.50;5011801;28;20046;-68
2022/12/03 01:32:49;;;;;;;24.52;9.55;;;;;;;-0.25;100.00;93744.78;5011016;28;20045;-67
2022/12/03 01:35:16;;;;;;;23.60;9.70;;;;;;;-0.19;100.00;93737.22;5011505;28;20050;-67
2022/12/03 01:37:42;;;;;;;24.27;9.82;;;;;;;-0.31;100.00;93737.34;5007656;28;20050;-67
2022/12/03 01:40:13;;;;;;;24.85;9.85;;;;;;;-0.34;100.00;93741.53;4990475;28;20778;-67
2022/12/03 01:42:41;;;;;;;22.38;8.60;;;;;;;-0.21;100.00;93747.56;4993491;28;20046;-67
2022/12/03 01:45:20;;;;;;;22.02;8.77;;;;;;;-0.53;100.00;93742.22;5002215;28;20041;-67
2022/12/03 01:47:47;;;;;;;24.38;9.27;;;;;;;-0.33;100.00;93748.47;4992036;28;20046;-66
2022/12/03 01:50:19;;;;;;;23.70;9.00;;;;;;;-0.16;100.00;93747.31;5008919;28;20488;-67
2022/12/03 01:52:45;;;;;;;24.48;9.40;;;;;;;-0.17;99.49;93734.97;5010599;28;20053;-66
2022/12/03 01:55:15;;;;;;;24.25;8.88;;;;;;;-0.13;99.98;93741.22;5008508;28;20400;-67
2022/12/03 01:57:54;;;;;;;24.00;9.07;;;;;;;-0.39;100.00;93741.78;4999812;28;20042;-67
2022/12/03 02:00:23;;;;;;;23.63;9.45;;;;;;;-0.52;100.00;93748.41;5009962;28;20061;-65
2022/12/03 02:03:01;;;;;;;26.15;9.60;;;;;;;-0.46;100.00;93741.63;5003622;28;20069;-66
2022/12/03 02:05:31;;;;;;;23.23;9.25;;;;;;;-0.63;100.00;93746.22;5005742;28;20116;-67
2022/12/03 02:07:58;;;;;;;22.63;9.32;;;;;;;-0.34;100.00;93746.91;5010178;28;20050;-67
2022/12/03 02:10:30;;;;;;;19.83;8.07;;;;;;;-0.27;99.82;93746.28;5011004;28;20057;-67
2022/12/03 02:13:02;;;;;;;24.42;9.00;;;;;;;-0.48;100.00;93738.50;5002488;28;20048;-67
2022/12/03 02:15:28;;;;;;;26.95;10.00;;;;;;;-0.56;100.00;93734.03;5003591;28;20103;-67
2022/12/03 02:17:56;;;;;;;24.27;9.10;;;;;;;-0.59;100.00;93732.84;5010021;28;20119;-67
2022/12/03 02:20:23;;;;;;;21.33;8.55;;;;;;;-0.29;100.00;93741.25;5010831;28;20045;-66
2022/12/03 02:23:04;;;;;;;24.38;9.50;;;;;;;-0.53;100.00;93739.53;5010092;28;20115;-67
2022/12/03 02:25:34;;;;;;;24.50;8.70;;;;;;;-0.54;100.00;93747.97;4999018;28;20058;-67
2022/12/03 02:28:03;;;;;;;26.77;10.10;;;;;;;-0.63;100.00;93742.75;5004345;28;20050;-66
2022/12/03 02:30:30;;;;;;;24.10;9.80;;;;;;;-0.49;100.00;93742.31;4996826;28;20054;-68
2022/12/03 02:32:57;;;;;;;26.65;9.07;;;;;;;-0.52;100.00;93738.41;5009457;28;20068;-67
2022/12/03 02:35:32;;;;;;;25.27;9.52;;;;;;;-0.68;100.00;93743.03;5010336;28;20080;-66
2022/12/03 02:38:15;;;;;;;24.25;9.63;;;;;;;-0.31;100.00;93742.72;5005101;28;20135;-69
2022/12/03 02:40:44;;;;;;;22.73;8.65;;;;;;;-0.11;99.74;93741.63;4986552;28;20038;-68
2022/12/03 02:43:13;;;;;;;23.48;8.88;;;;;;;-0.10;99.79;93739.72;4994040;28;21478;-68
2022/12/03 02:45:42;;;;;;;25.45;9.52;;;;;;;-0.09;99.18;93738.59;4990509;28;20076;-67
2022/12/03 02:48:31;;;;;;;25.65;9.80;;;;;;;-0.05;99.17;93734.06;4997965;28;20049;-67
2022/12/03 02:51:04;;;;;;;23.10;9.20;;;;;;;0.09;98.80;93728.19;5008976;28;20050;-66
2022/12/03 02:53:37;;;;;;;28.67;9.80;;;;;;;0.00;99.18;93731.09;5000251;28;20064;-67
2022/12/03 02:56:04;;;;;;;28.90;10.60;;;;;;;-0.21;99.27;93720.59;4998951;28;20048;-67
2022/12/03 02:58:32;;;;;;;30.08;11.73;;;;;;;-0.79;100.00;93725.81;5001931;28;20045;-68
2022/12/03 03:01:00;;;;;;;30.65;10.98;;;;;;;-0.55;100.00;93722.94;5024225;28;20042;-67
2022/12/03 03:03:29;;;;;;;30.38;10.55;;;;;;;-0.62;100.00;93728.94;5010344;28;20042;-67
2022/12/03 03:05:58;;;;;;;30.60;10.55;;;;;;;-0.53;100.00;93728.75;5009526;28;20058;-67
2022/12/03 03:08:27;;;;;;;28.00;11.02;;;;;;;-0.51;100.00;93718.41;5010388;28;20076;-68
2022/12/03 03:10:55;;;;;;;28.58;9.98;;;;;;;-0.58;100.00;93723.63;5009688;28;20410;-67
2022/12/03 03:13:22;;;;;;;27.42;9.80;;;;;;;-0.37;100.00;93722.56;5003324;28;20069;-67
2022/12/03 03:15:49;;;;;;;29.45;10.50;;;;;;;-0.66;100.00;93722.69;5003071;28;20407;-67
2022/12/03 03:18:16;;;;;;;31.95;11.25;;;;;;;-0.72;100.00;93724.06;5010044;28;20048;-67
2022/12/03 03:20:44;;;;;;;30.95;10.82;;;;;;;-0.32;100.00;93735.75;5009763;28;20613;-67
2022/12/03 03:23:10;;;;;;;28.98;10.10;;;;;;;-0.39;100.00;93731.00;5009105;28;20361;-65
2022/12/03 03:25:39;;;;;;;30.25;10.63;;;;;;;-0.22;100.00;93729.84;5004819;28;20520;-67
2022/12/03 03:28:06;;;;;;;32.08;10.80;;;;;;;-0.48;100.00;93730.41;5009377;28;20046;-67
2022/12/03 03:30:34;;;;;;;29.63;10.35;;;;;;;-0.48;100.00;93733.09;5009812;28;20117;-65
2022/12/03 03:33:01;;;;;;;29.25;10.65;;;;;;;-1.05;100.00;93741.38;5007936;28;20038;-66
2022/12/03 03:35:28;;;;;;;29.38;10.82;;;;;;;-0.99;100.00;93733.03;5010106;28;20088;-67
2022/12/03 03:37:57;;;;;;;28.05;9.43;;;;;;;-0.68;100.00;93726.88;5001356;28;20058;-65
2022/12/03 03:40:25;;;;;;;31.98;11.60;;;;;;;-0.92;100.00;93736.69;5005249;28;20050;-65
2022/12/03 03:42:52;;;;;;;29.73;10.82;;;;;;;-0.90;100.00;93734.41;4993219;28;20073;-65
2022/12/03 03:45:19;;;;;;;28.15;9.90;;;;;;;-0.67;100.00;93737.28;4993675;28;20419;-65
2022/12/03 03:47:56;;;;;;;26.02;9.50;;;;;;;-0.58;100.00;93739.81;5001196;28;20046;-65
2022/12/03 03:50:22;;;;;;;28.80;10.40;;;;;;;-0.80;100.00;93722.34;5011700;28;20046;-65
2022/12/03 03:52:49;;;;;;;30.25;10.60;;;;;;;-0.75;100.00;93722.06;5012659;28;20060;-65
2022/12/03 03:55:17;;;;;;;23.98;8.65;;;;;;;-0.71;100.00;93719.47;5011151;28;20078;-66
2022/12/03 03:57:45;;;;;;;28.60;10.55;;;;;;;-0.69;100.00;93722.59;5001535;28;20111;-65
2022/12/03 04:00:12;;;;;;;27.40;10.52;;;;;;;-0.72;100.00;93726.78;5013548;28;20064;-66
2022/12/03 04:02:39;;;;;;;33.53;11.35;;;;;;;-0.71;100.00;93730.25;5013120;28;20037;-66
2022/12/03 04:05:11;;;;;;;28.00;9.32;;;;;;;-0.63;100.00;93730.06;5012427;28;20042;-66
2022/12/03 04:07:38;;;;;;;30.90;11.80;;;;;;;-1.07;100.00;93724.75;5013384;28;20060;-66
2022/12/03 04:12:54;;;;;;;26.92;10.07;;;;;;;-0.65;100.00;93704.59;5012499;28;20038;-66
2022/12/03 04:12:54;;;;;;;31.17;10.70;;;;;;;-0.55;100.00;93708.66;5006029;28;20088;-65
2022/12/03 04:15:22;;;;;;;28.65;10.55;;;;;;;-0.70;100.00;93710.25;5006257;28;20054;-66
2022/12/03 04:18:41;;;;;;;34.33;12.30;;;;;;;-1.15;100.00;93712.22;5012087;28;20042;-65
2022/12/03 04:20:36;;;;;;;30.70;9.95;;;;;;;-0.78;100.00;93698.53;5012658;28;20052;-66
2022/12/03 04:23:04;;;;;;;33.95;11.23;;;;;;;-0.77;100.00;93699.31;5012048;28;20403;-65
2022/12/03 04:36:32;;;;;;;30.85;10.40;;;;;;;-0.49;100.00;93681.09;5012677;28;20052;-66
2022/12/03 04:38:59;;;;;;;26.92;10.05;;;;;;;-0.66;100.00;93678.78;5011956;28;20044;-66
2022/12/03 04:41:26;;;;;;;28.95;10.10;;;;;;;-0.62;100.00;93682.34;5012468;28;20050;-66
2022/12/03 04:46:38;;;;;;;28.60;10.23;;;;;;;-0.51;100.00;93685.28;5009136;28;20042;-66
2022/12/03 04:49:04;;;;;;;30.52;10.35;;;;;;;-0.42;100.00;93696.66;5000310;28;20060;-66
2022/12/03 04:51:31;;;;;;;29.20;10.65;;;;;;;-0.42;100.00;93712.84;5012341;28;20446;-66
2022/12/03 04:53:57;;;;;;;30.27;10.63;;;;;;;-0.41;100.00;93712.47;5011570;28;20041;-66
2022/12/03 04:56:24;;;;;;;29.02;10.52;;;;;;;-0.94;100.00;93703.16;5011222;28;20041;-66
2022/12/03 04:58:51;;;;;;;29.90;10.63;;;;;;;-0.95;100.00;93704.25;5011542;28;20093;-66
2022/12/03 05:01:18;;;;;;;28.25;9.88;;;;;;;-0.65;100.00;93712.69;5011996;28;20533;-67
2022/12/03 05:03:44;;;;;;;26.00;9.48;;;;;;;-0.50;100.00;93709.19;5011404;28;20042;-65
2022/12/03 05:06:11;;;;;;;24.55;8.82;;;;;;;-0.46;100.00;93710.06;5012066;28;20068;-66
2022/12/03 05:08:38;;;;;;;26.17;9.57;;;;;;;-0.63;100.00;93707.72;5002146;28;20430;-66
2022/12/03 05:11:04;;;;;;;27.08;9.48;;;;;;;-0.51;100.00;93706.84;4992518;28;20057;-66
2022/12/03 05:13:31;;;;;;;25.70;9.38;;;;;;;-0.37;100.00;93709.84;4993574;28;20484;-66
2022/12/03 05:15:58;;;;;;;25.85;9.82;;;;;;;-0.58;100.00;93712.06;5011284;28;20068;-65
2022/12/03 05:18:24;;;;;;;25.95;9.32;;;;;;;-0.48;100.00;93714.25;4998271;28;20450;-67
2022/12/03 05:20:51;;;;;;;26.75;9.38;;;;;;;-0.96;100.00;93711.56;5011375;28;20049;-66
2022/12/03 05:23:20;;;;;;;26.00;8.90;;;;;;;-0.96;100.00;93710.78;5011547;28;20042;-67
2022/12/03 05:25:47;;;;;;;27.67;9.63;;;;;;;-0.83;100.00;93706.88;5012639;28;20039;-65
2022/12/03 05:28:13;;;;;;;28.27;9.68;;;;;;;-0.49;100.00;93707.28;5007859;28;20050;-66
2022/12/03 05:30:40;;;;;;;25.02;8.75;;;;;;;-0.67;100.00;93709.56;5011612;28;20474;-67
2022/12/03 05:33:07;;;;;;;28.58;10.38;;;;;;;-0.88;100.00;93718.69;5011009;28;20045;-66
2022/12/03 05:35:34;;;;;;;26.63;9.25;;;;;;;-0.82;100.00;93714.59;5011268;28;20381;-66
2022/12/03 05:38:00;;;;;;;27.10;9.38;;;;;;;-0.63;100.00;93710.41;5010997;28;20050;-65
2022/12/03 05:40:27;;;;;;;27.35;10.25;;;;;;;-0.38;100.00;93708.31;5011342;28;20135;-65
2022/12/03 05:42:55;;;;;;;26.45;9.45;;;;;;;-0.34;100.00;93709.16;5000909;28;20050;-65
2022/12/03 05:45:31;;;;;;;26.27;8.90;;;;;;;-0.18;100.00;93706.44;5008031;28;20038;-65
2022/12/03 05:47:58;;;;;;;25.27;8.77;;;;;;;-0.12;100.00;93705.03;5010615;28;20414;-65
2022/12/03 05:50:30;;;;;;;25.88;9.63;;;;;;;-0.32;100.00;93706.91;5011298;28;20458;-66
2022/12/03 05:52:57;;;;;;;26.13;9.95;;;;;;;-0.74;100.00;93702.09;5010758;28;20044;-66
2022/12/03 05:55:24;;;;;;;25.52;9.13;;;;;;;-0.93;100.00;93705.47;5007891;28;20054;-66
2022/12/03 05:57:51;;;;;;;25.38;9.20;;;;;;;-1.14;100.00;93713.03;5008382;28;20380;-67
2022/12/03 06:00:25;;;;;;;25.77;9.52;;;;;;;-1.45;100.00;93717.22;5000749;28;20423;-66
2022/12/03 06:02:52;;;;;;;24.27;8.25;;;;;;;-1.28;100.00;93710.75;5007798;28;20049;-66
2022/12/03 06:05:20;;;;;;;20.73;8.40;;;;;;;-1.01;100.00;93709.13;5011119;28;20501;-66
2022/12/03 06:07:49;;;;;;;24.60;8.38;;;;;;;-0.75;100.00;93705.13;5008508;28;20060;-65
2022/12/03 06:10:19;;;;;;;22.13;8.23;;;;;;;-0.82;100.00;93709.22;5010951;28;20533;-67
2022/12/03 06:12:46;;;;;;;20.50;7.10;;;;;;;-0.89;100.00;93695.56;5010410;28;20060;-65
2022/12/03 06:15:13;;;;;;;21.02;7.82;;;;;;;-0.88;100.00;93689.06;5010745;28;20474;-66
2022/12/03 06:17:40;;;;;;;23.52;8.40;;;;;;;-0.73;100.00;93689.41;4997044;28;20430;-65
2022/12/03 06:20:09;;;;;;;21.13;8.48;;;;;;;-0.90;100.00;93687.84;4982997;28;20042;-65
2022/12/03 06:22:36;;;;;;;21.23;8.07;;;;;;;-0.99;100.00;93698.78;5010738;28;20510;-65
2022/12/03 06:25:02;;;;;;;20.67;7.10;;;;;;;-0.95;100.00;93699.66;5003527;28;20046;-66
2022/12/03 06:27:33;;;;;;;18.88;7.28;;;;;;;-0.93;100.00;93693.91;5010767;28;20042;-66
2022/12/03 06:29:59;;;;;;;19.45;7.03;;;;;;;-0.75;100.00;93695.13;5009971;28;20057;-67
2022/12/03 06:32:26;;;;;;;21.38;8.32;;;;;;;-1.22;100.00;93695.91;5010420;28;20356;-67
2022/12/03 06:34:53;;;;;;;20.35;7.65;;;;;;;-1.31;100.00;93697.97;5010070;28;20480;-66
2022/12/03 06:37:20;;;;;;;22.63;8.32;;;;;;;-1.25;100.00;93710.06;5010461;28;20075;-67
2022/12/03 06:39:46;;;;;;;19.15;7.30;;;;;;;-1.28;100.00;93716.91;5009939;28;20064;-66
2022/12/03 06:42:13;;;;;;;19.73;7.07;;;;;;;-1.29;100.00;93719.94;5010201;28;20410;-66
2022/12/03 06:44:40;;;;;;;20.88;7.65;;;;;;;-1.24;100.00;93711.63;5010189;28;20529;-66
2022/12/03 06:47:06;;;;;;;24.13;8.00;;;;;;;-1.01;100.00;93709.13;5009447;28;20042;-67
2022/12/03 06:49:33;;;;;;;20.48;7.38;;;;;;;-1.10;100.00;93713.91;5009229;28;20046;-67
2022/12/03 06:52:00;;;;;;;20.35;7.90;;;;;;;-0.83;100.00;93702.25;5009361;28;20068;-67
2022/12/03 06:54:26;;;;;;;22.95;7.03;;;;;;;-1.07;100.00;93700.50;5010140;28;20057;-67
2022/12/03 06:56:53;;;;;;;21.38;8.02;;;;;;;-1.09;100.00;93715.47;4995356;28;20053;-67
2022/12/03 06:59:20;;;;;;;20.35;8.10;;;;;;;-1.20;100.00;93715.19;5010431;28;20380;-67
2022/12/03 07:01:46;;;;;;;23.02;8.27;;;;;;;-1.48;100.00;93717.94;4993939;28;20050;-65
2022/12/03 07:04:13;;;;;;;24.48;9.77;;;;;;;-1.70;100.00;93722.72;4989816;28;20061;-66
2022/12/03 07:06:40;;;;;;;22.27;8.80;;;;;;;-1.67;100.00;93723.94;4994265;28;20433;-66
2022/12/03 07:09:06;;;;;;;23.92;7.93;;;;;;;-1.53;100.00;93721.66;5010598;28;20046;-67
2022/12/03 07:11:39;;;;;;;21.92;7.70;;;;;;;-1.10;100.00;93714.69;4997106;28;20050;-67
2022/12/03 07:14:07;;;;;;;22.42;7.55;;;;;;;-1.19;100.00;93714.06;5009203;28;20377;-66
2022/12/03 07:16:34;;;;;;;22.33;8.02;;;;;;;-0.83;100.00;93709.56;5025127;28;20034;-67
2022/12/03 07:19:03;;;;;;;23.25;8.13;;;;;;;-0.96;100.00;93711.56;5000984;28;20047;-67
2022/12/03 07:21:30;;;;;;;26.08;8.98;;;;;;;-0.97;100.00;93710.00;5010071;28;20100;-67
2022/12/03 07:23:57;;;;;;;24.90;8.95;;;;;;;-0.85;100.00;93714.50;5013301;28;20042;-66
2022/12/03 07:26:23;;;;;;;25.98;7.95;;;;;;;-0.71;100.00;93704.06;5007549;28;20108;-67
2022/12/03 07:28:50;;;;;;;21.50;8.52;;;;;;;-0.74;100.00;93710.16;5013485;28;20053;-66
2022/12/03 07:31:17;;;;;;;24.92;8.52;;;;;;;-0.77;100.00;93700.09;5013745;28;20045;-67
2022/12/03 07:33:44;;;;;;;30.27;10.07;;;;;;;-0.72;100.00;93709.84;5013213;28;20430;-66
2022/12/03 07:36:11;;;;;;;22.60;8.77;;;;;;;-1.09;100.00;93704.69;5001087;28;20052;-66
2022/12/03 07:38:37;;;;;;;23.27;8.65;;;;;;;-0.84;100.00;93714.16;4996628;28;20054;-66
2022/12/03 07:41:04;;;;;;;20.63;8.07;;;;;;;-0.89;100.00;93700.94;5012940;28;20056;-66
2022/12/03 07:43:31;;;;;;;18.90;7.32;;;;;;;-0.39;100.00;93701.34;5013805;28;20048;-66
2022/12/03 07:45:58;;;;;;;21.58;8.85;;;;;;;-0.13;99.97;93699.97;5012574;28;20044;-66
2022/12/03 07:48:24;;;;;;;19.85;7.15;;;;;;;-0.67;100.00;93704.16;5013615;28;20448;-66
2022/12/03 07:50:51;;;;;;;19.85;7.03;;;;;;;-0.89;100.00;93703.66;5012720;28;20454;-66
2022/12/03 07:53:18;;;;;;;25.55;8.15;;;;;;;-0.72;100.00;93696.34;5013303;28;20575;-66
2022/12/03 07:55:44;;;;;;;21.40;7.70;;;;;;;-0.37;100.00;93690.22;5007128;28;20060;-66
2022/12/03 07:58:11;;;;;;;21.52;7.68;;;;;;;-0.53;100.00;93698.31;5011482;28;20046;-66
2022/12/03 08:00:38;;;;;;;18.83;7.47;;;;;;;-0.38;100.00;93691.31;5006787;28;20376;-66
2022/12/03 08:03:04;;;;;;;20.73;7.57;;;;;;;-0.10;99.48;93700.06;4993767;28;20052;-66
2022/12/03 08:05:31;;;;;;;18.77;7.45;;;;;;;-0.29;98.78;93700.00;4997579;28;20046;-66
2022/12/03 08:07:58;;;;;;;20.60;8.23;;;;;;;-0.01;98.77;93699.84;4992728;28;20121;-66
2022/12/03 08:10:25;;;;;;;22.15;8.70;;;;;;;-0.71;100.00;93706.00;5001322;28;20046;-66
2022/12/03 08:12:58;;;;;;;21.35;8.60;;;;;;;-0.37;100.00;93699.06;5007279;28;20111;-66
2022/12/03 08:15:27;;;;;;;20.92;8.02;;;;;;;-0.26;98.20;93707.41;5013279;28;20056;-66
2022/12/03 08:18:11;;;;;;;23.25;8.88;;;;;;;-0.35;98.56;93706.81;5011679;28;20438;-66
2022/12/03 08:20:39;;;;;;;24.80;9.43;;;;;;;-0.37;100.00;93701.00;5001496;28;20464;-66
2022/12/03 08:23:12;;;;;;;22.83;8.00;;;;;;;0.09;98.80;93706.59;5012343;28;20042;-68
2022/12/03 08:25:39;;;;;;;25.73;9.90;;;;;;;0.19;98.38;93703.34;5007294;28;20060;-66
2022/12/03 08:28:19;;;;;;;21.20;8.27;;;;;;;0.09;98.40;93698.50;5011931;28;20041;-66
2022/12/03 08:30:56;;;;;;;21.30;9.05;;;;;;;0.44;96.97;93687.63;5011180;28;20052;-68
2022/12/03 08:33:34;;;;;;;21.63;8.35;;;;;;;-0.36;98.77;93683.66;5012867;28;20515;-67
2022/12/03 08:36:12;;;;;;;25.77;10.18;;;;;;;0.01;100.00;93675.22;5003648;28;20056;-66
2022/12/03 08:38:39;;;;;;;20.42;8.80;;;;;;;0.36;98.37;93677.81;5008750;28;20045;-66
2022/12/03 08:41:13;;;;;;;21.77;7.63;;;;;;;0.46;97.15;93685.34;5011761;28;20042;-66
2022/12/03 08:43:43;;;;;;;22.67;8.25;;;;;;;0.15;97.08;93673.59;5012357;28;20123;-67
2022/12/03 08:46:18;;;;;;;23.88;8.32;;;;;;;-0.33;100.00;93680.28;5011215;28;20671;-67
2022/12/03 08:48:45;;;;;;;19.70;7.80;;;;;;;-0.20;100.00;93679.03;5011985;28;20126;-66
2022/12/03 08:51:22;;;;;;;21.75;9.38;;;;;;;-0.28;100.00;93683.50;5012186;28;20095;-66
2022/12/03 08:53:52;;;;;;;19.85;7.47;;;;;;;-0.06;100.00;93681.22;5012124;28;20042;-66
2022/12/03 08:56:29;;;;;;;20.30;7.90;;;;;;;-0.48;100.00;93685.38;5003634;28;20054;-66
2022/12/03 08:59:19;;;;;;;18.40;7.18;;;;;;;-0.51;100.00;93693.38;5011799;28;20046;-66
2022/12/03 09:01:47;;;;;;;17.60;6.88;;;;;;;-0.24;100.00;93694.38;4996426;28;20038;-66
2022/12/03 09:04:20;;;;;;;17.63;6.63;;;;;;;-0.11;100.00;93695.78;4996258;28;20053;-66
2022/12/03 09:06:47;;;;;;;22.92;7.72;;;;;;;0.11;99.83;93697.00;4986040;28;20053;-66
2022/12/03 09:09:14;;;;;;;20.77;8.07;;;;;;;0.38;98.55;93692.56;5006218;28;20108;-66
2022/12/03 09:11:42;;;;;;;27.40;9.35;;;;;;;0.06;99.69;93707.28;5002774;28;20042;-66
2022/12/03 09:14:09;;;;;;;20.95;8.30;;;;;;;0.42;98.24;93699.91;5011427;28;20042;-66
2022/12/03 09:16:43;;;;;;;27.70;8.70;;;;;;;-0.23;100.00;93699.38;5012004;28;20090;-66
2022/12/03 09:19:10;;;;;;;21.83;7.65;;;;;;;-0.24;100.00;93699.75;4996845;28;20940;-66
2022/12/03 09:21:37;;;;;;;23.80;7.78;;;;;;;0.35;99.96;93697.88;5011877;28;20111;-66
2022/12/03 09:24:04;;;;;;;20.65;7.78;;;;;;;-0.29;100.00;93706.19;5011100;28;20054;-66
2022/12/03 09:26:30;;;;;;;22.40;9.43;;;;;;;-0.24;100.00;93699.75;4997448;28;20365;-66
2022/12/03 09:28:57;;;;;;;19.92;7.97;;;;;;;-0.24;100.00;93707.84;5011017;28;20407;-66
2022/12/03 09:31:24;;;;;;;24.20;8.57;;;;;;;-0.35;100.00;93706.81;5011262;28;20038;-66
2022/12/03 09:33:51;;;;;;;22.58;7.85;;;;;;;-0.01;100.00;93702.53;5010811;28;20054;-66
2022/12/03 09:36:17;;;;;;;23.93;7.80;;;;;;;0.48;99.68;93699.28;4997413;28;20450;-67
2022/12/03 09:38:44;;;;;;;22.65;8.02;;;;;;;0.45;98.04;93697.31;5010950;28;20403;-66
2022/12/03 09:41:14;;;;;;;21.85;8.23;;;;;;;0.57;97.25;93693.66;5010476;28;20049;-66
2022/12/03 09:43:41;;;;;;;25.58;10.52;;;;;;;0.24;99.13;93686.84;5007455;28;20410;-66
2022/12/03 09:46:29;;;;;;;25.83;9.75;;;;;;;0.74;98.12;93684.31;5001689;28;20453;-66
2022/12/03 09:48:56;;;;;;;17.97;6.97;;;;;;;0.84;96.74;93688.34;5011010;28;20407;-66
2022/12/03 09:51:29;;;;;;;20.38;7.75;;;;;;;0.96;95.86;93677.38;5011127;28;20057;-67
2022/12/03 09:53:58;;;;;;;22.65;8.43;;;;;;;0.28;97.89;93668.84;5010694;28;20431;-66
2022/12/03 09:56:25;;;;;;;19.38;8.05;;;;;;;-0.15;99.96;93676.03;5010954;28;20107;-66
2022/12/03 09:58:52;;;;;;;19.30;7.68;;;;;;;0.18;100.00;93664.78;5010712;28;20050;-66
2022/12/03 10:01:19;;;;;;;45.47;19.40;;;;;;;0.44;99.09;93667.94;5010400;28;20038;-67
2022/12/03 10:03:50;;;;;;;25.85;10.80;;;;;;;0.47;99.10;93664.56;5025796;28;20511;-66
2022/12/03 10:06:22;;;;;;;19.67;7.80;;;;;;;0.42;99.34;93667.53;5010884;28;20048;-66
2022/12/03 10:08:53;;;;;;;20.27;7.75;;;;;;;-0.17;100.00;93662.13;5008675;28;20100;-66
2022/12/03 10:11:23;;;;;;;20.60;7.30;;;;;;;0.13;99.77;93658.88;4991103;28;20116;-66
2022/12/03 10:13:50;;;;;;;18.63;7.00;;;;;;;0.29;99.35;93648.78;5004006;28;20383;-66
2022/12/03 10:16:19;;;;;;;17.42;6.93;;;;;;;0.60;98.65;93649.72;5010417;28;20046;-66
2022/12/03 10:18:50;;;;;;;19.98;7.47;;;;;;;0.29;98.22;93653.41;5010441;28;20057;-66
2022/12/03 10:21:21;;;;;;;19.88;6.80;;;;;;;0.69;97.63;93641.41;5010630;28;20434;-66
2022/12/03 10:23:49;;;;;;;20.67;8.10;;;;;;;0.71;97.69;93633.72;5010307;28;20402;-66
2022/12/03 10:26:38;;;;;;;23.27;8.10;;;;;;;0.80;97.26;93631.56;5006480;28;20069;-66
2022/12/03 10:29:24;;;;;;;26.20;9.30;;;;;;;0.46;98.60;93636.75;4993776;28;20054;-66
2022/12/03 10:32:00;;;;;;;18.33;7.88;;;;;;;0.28;99.36;93632.94;4982122;28;20049;-66
2022/12/03 10:34:37;;;;;;;20.35;7.90;;;;;;;-0.41;100.00;93644.28;5001241;28;20045;-67
2022/12/03 10:37:13;;;;;;;22.25;7.95;;;;;;;-0.47;100.00;93638.38;4999417;28;20491;-66
2022/12/03 10:40:00;;;;;;;18.35;7.40;;;;;;;-0.39;100.00;93646.66;5007118;28;20054;-67
2022/12/03 10:42:29;;;;;;;19.08;7.38;;;;;;;-0.14;100.00;93636.38;5009230;28;20457;-66
2022/12/03 10:45:14;;;;;;;25.73;7.75;;;;;;;-0.01;100.00;93638.56;5004495;28;20045;-66
2022/12/03 10:47:42;;;;;;;31.05;7.70;;;;;;;0.24;100.00;93626.69;5004200;28;20104;-66
2022/12/03 10:50:18;;;;;;;18.95;7.65;;;;;;;0.02;100.00;93631.72;5005158;28;21669;-67
2022/12/03 10:52:45;;;;;;;22.70;7.90;;;;;;;-0.07;100.00;93634.59;5001321;28;20404;-66
2022/12/03 10:55:14;;;;;;;24.73;8.40;;;;;;;0.10;100.00;93633.41;5007050;28;20045;-66
2022/12/03 10:57:41;;;;;;;22.75;7.25;;;;;;;0.36;100.00;93626.53;4998907;28;20053;-66
2022/12/03 11:00:17;;;;;;;22.42;7.70;;;;;;;-0.25;100.00;93628.84;5009352;28;21838;-67
2022/12/03 11:02:46;;;;;;;18.48;7.43;;;;;;;-0.43;100.00;93630.38;4979734;28;20096;-66
2022/12/03 11:05:35;;;;;;;24.50;6.73;;;;;;;0.46;100.00;93623.25;4972579;28;20069;-66
2022/12/03 11:08:02;;;;;;;20.42;7.57;;;;;;;0.04;100.00;93618.66;5009416;28;20395;-66
2022/12/03 11:10:29;;;;;;;18.38;6.50;;;;;;;0.15;100.00;93605.34;5009618;28;20064;-66
2022/12/03 11:13:33;;;;;;;18.98;7.05;;;;;;;0.50;99.55;93605.19;5008504;28;20048;-66
2022/12/03 11:16:02;;;;;;;18.52;7.38;;;;;;;0.82;98.55;93601.50;5009428;28;20070;-66
2022/12/03 11:18:35;;;;;;;19.88;6.75;;;;;;;0.40;99.35;93589.59;5009707;28;20046;-66
2022/12/03 11:21:02;;;;;;;14.63;6.20;;;;;;;0.26;99.47;93592.03;5009676;28;20411;-66
2022/12/03 11:23:43;;;;;;;17.77;6.65;;;;;;;-0.36;100.00;93592.00;5009810;28;20096;-67
2022/12/03 11:26:37;;;;;;;17.63;6.22;;;;;;;0.12;100.00;93585.25;5003804;28;21472;-67
2022/12/03 11:29:13;;;;;;;18.05;6.68;;;;;;;0.28;100.00;93573.56;4992945;28;20054;-66
2022/12/03 11:31:46;;;;;;;22.95;8.27;;;;;;;0.38;100.00;93572.97;5002133;28;20056;-66
2022/12/03 11:34:19;;;;;;;20.17;7.65;;;;;;;0.70;100.00;93568.13;5008864;28;20268;-66
2022/12/03 11:37:08;;;;;;;22.50;8.52;;;;;;;1.20;98.26;93574.28;5001440;28;20057;-65
2022/12/03 11:39:43;;;;;;;23.38;7.75;;;;;;;1.04;97.32;93570.19;5005616;28;20079;-66
2022/12/03 11:42:24;;;;;;;23.08;9.18;;;;;;;0.93;97.07;93572.75;5008730;28;20717;-66
2022/12/03 11:45:21;;;;;;;17.97;7.63;;;;;;;0.87;97.63;93568.78;5008187;28;20046;-67